sensor_id;sensor_type;location;lat;lon;timestamp;temperature;humidity
66190;DHT22;52992;52.084;5.412;2023-04-24T00:01:08;13.10;79.10
66190;DHT22;52992;52.084;5.412;2023-04-24T00:03:36;13.10;79.20
66190;DHT22;52992;52.084;5.412;2023-04-24T00:06:04;13.10;79.00
66190;DHT22;52992;52.084;5.412;2023-04-24T00:08:32;13.10;79.00
66190;DHT22;52992;52.084;5.412;2023-04-24T00:10:59;13.10;78.90
66190;DHT22;52992;52.084;5.412;2023-04-24T00:13:26;13.10;79.20
66190;DHT22;52992;52.084;5.412;2023-04-24T00:15:55;13.10;78.90
66190;DHT22;52992;52.084;5.412;2023-04-24T00:18:22;13.10;79.30
66190;DHT22;52992;52.084;5.412;2023-04-24T00:20:49;13.20;79.10
66190;DHT22;52992;52.084;5.412;2023-04-24T00:23:16;13.10;79.40
66190;DHT22;52992;52.084;5.412;2023-04-24T00:25:42;13.20;79.10
66190;DHT22;52992;52.084;5.412;2023-04-24T00:28:09;13.10;79.50
66190;DHT22;52992;52.084;5.412;2023-04-24T00:30:36;13.10;79.90
66190;DHT22;52992;52.084;5.412;2023-04-24T00:33:04;13.20;80.50
66190;DHT22;52992;52.084;5.412;2023-04-24T00:35:31;13.20;80.00
66190;DHT22;52992;52.084;5.412;2023-04-24T00:37:58;13.20;79.30
66190;DHT22;52992;52.084;5.412;2023-04-24T00:40:25;13.20;80.00
66190;DHT22;52992;52.084;5.412;2023-04-24T00:42:53;13.20;79.10
66190;DHT22;52992;52.084;5.412;2023-04-24T00:45:20;13.20;79.60
66190;DHT22;52992;52.084;5.412;2023-04-24T00:47:48;13.20;79.70
66190;DHT22;52992;52.084;5.412;2023-04-24T00:50:16;13.20;79.30
66190;DHT22;52992;52.084;5.412;2023-04-24T00:52:43;13.20;79.40
66190;DHT22;52992;52.084;5.412;2023-04-24T00:55:10;13.20;79.60
66190;DHT22;52992;52.084;5.412;2023-04-24T00:57:38;13.20;79.30
66190;DHT22;52992;52.084;5.412;2023-04-24T01:00:06;13.20;79.50
66190;DHT22;52992;52.084;5.412;2023-04-24T01:02:39;13.10;80.10
66190;DHT22;52992;52.084;5.412;2023-04-24T01:05:07;13.20;79.00
66190;DHT22;52992;52.084;5.412;2023-04-24T01:07:35;13.10;78.80
66190;DHT22;52992;52.084;5.412;2023-04-24T01:10:02;13.10;79.30
66190;DHT22;52992;52.084;5.412;2023-04-24T01:12:30;13.20;79.60
66190;DHT22;52992;52.084;5.412;2023-04-24T01:14:57;13.20;79.10
66190;DHT22;52992;52.084;5.412;2023-04-24T01:17:24;13.20;79.30
66190;DHT22;52992;52.084;5.412;2023-04-24T01:19:51;13.20;79.40
66190;DHT22;52992;52.084;5.412;2023-04-24T01:22:23;13.20;78.80
66190;DHT22;52992;52.084;5.412;2023-04-24T01:24:50;13.20;79.10
66190;DHT22;52992;52.084;5.412;2023-04-24T01:27:17;13.20;79.30
66190;DHT22;52992;52.084;5.412;2023-04-24T01:29:44;13.10;79.50
66190;DHT22;52992;52.084;5.412;2023-04-24T01:32:12;13.10;79.60
66190;DHT22;52992;52.084;5.412;2023-04-24T01:34:40;13.30;79.70
66190;DHT22;52992;52.084;5.412;2023-04-24T01:37:07;13.20;79.60
66190;DHT22;52992;52.084;5.412;2023-04-24T01:39:33;13.30;80.00
66190;DHT22;52992;52.084;5.412;2023-04-24T01:42:00;13.40;80.10
66190;DHT22;52992;52.084;5.412;2023-04-24T01:44:29;13.40;79.60
66190;DHT22;52992;52.084;5.412;2023-04-24T01:46:57;13.50;79.50
66190;DHT22;52992;52.084;5.412;2023-04-24T01:49:24;13.50;78.90
66190;DHT22;52992;52.084;5.412;2023-04-24T01:51:51;13.50;79.40
66190;DHT22;52992;52.084;5.412;2023-04-24T01:54:18;13.50;79.20
66190;DHT22;52992;52.084;5.412;2023-04-24T01:56:45;13.50;79.40
66190;DHT22;52992;52.084;5.412;2023-04-24T01:59:12;13.50;79.40
66190;DHT22;52992;52.084;5.412;2023-04-24T02:01:39;13.50;79.50
66190;DHT22;52992;52.084;5.412;2023-04-24T02:04:07;13.50;79.00
66190;DHT22;52992;52.084;5.412;2023-04-24T02:06:35;13.50;80.20
66190;DHT22;52992;52.084;5.412;2023-04-24T02:09:02;13.40;79.30
66190;DHT22;52992;52.084;5.412;2023-04-24T02:11:30;13.40;78.90
66190;DHT22;52992;52.084;5.412;2023-04-24T02:13:57;13.40;79.40
66190;DHT22;52992;52.084;5.412;2023-04-24T02:16:24;13.40;79.70
66190;DHT22;52992;52.084;5.412;2023-04-24T02:18:51;13.40;79.50
66190;DHT22;52992;52.084;5.412;2023-04-24T02:21:18;13.40;79.40
66190;DHT22;52992;52.084;5.412;2023-04-24T02:23:45;13.40;79.40
66190;DHT22;52992;52.084;5.412;2023-04-24T02:26:12;13.30;79.30
66190;DHT22;52992;52.084;5.412;2023-04-24T02:28:39;13.40;79.60
66190;DHT22;52992;52.084;5.412;2023-04-24T02:31:06;13.40;79.40
66190;DHT22;52992;52.084;5.412;2023-04-24T02:33:33;13.40;79.70
66190;DHT22;52992;52.084;5.412;2023-04-24T02:36:01;13.40;79.80
66190;DHT22;52992;52.084;5.412;2023-04-24T02:38:28;13.50;79.70
66190;DHT22;52992;52.084;5.412;2023-04-24T02:40:55;13.50;79.70
66190;DHT22;52992;52.084;5.412;2023-04-24T02:43:21;13.60;79.50
66190;DHT22;52992;52.084;5.412;2023-04-24T02:45:49;13.60;79.80
66190;DHT22;52992;52.084;5.412;2023-04-24T02:48:16;13.60;79.20
66190;DHT22;52992;52.084;5.412;2023-04-24T02:50:44;13.70;79.50
66190;DHT22;52992;52.084;5.412;2023-04-24T02:53:10;13.50;79.40
66190;DHT22;52992;52.084;5.412;2023-04-24T02:55:37;13.60;79.40
66190;DHT22;52992;52.084;5.412;2023-04-24T02:58:04;13.60;79.50
66190;DHT22;52992;52.084;5.412;2023-04-24T03:00:32;13.60;79.30
66190;DHT22;52992;52.084;5.412;2023-04-24T03:02:59;13.60;79.30
66190;DHT22;52992;52.084;5.412;2023-04-24T03:05:26;13.60;78.90
66190;DHT22;52992;52.084;5.412;2023-04-24T03:07:54;13.60;78.90
66190;DHT22;52992;52.084;5.412;2023-04-24T03:10:20;13.70;79.00
66190;DHT22;52992;52.084;5.412;2023-04-24T03:12:49;13.70;79.00
66190;DHT22;52992;52.084;5.412;2023-04-24T03:15:17;13.60;78.90
66190;DHT22;52992;52.084;5.412;2023-04-24T03:17:44;13.60;78.80
66190;DHT22;52992;52.084;5.412;2023-04-24T03:20:12;13.60;79.10
66190;DHT22;52992;52.084;5.412;2023-04-24T03:22:40;13.60;79.20
66190;DHT22;52992;52.084;5.412;2023-04-24T03:25:08;13.60;78.90
66190;DHT22;52992;52.084;5.412;2023-04-24T03:27:37;13.60;78.60
66190;DHT22;52992;52.084;5.412;2023-04-24T03:30:17;13.70;78.50
66190;DHT22;52992;52.084;5.412;2023-04-24T03:32:52;13.60;78.40
66190;DHT22;52992;52.084;5.412;2023-04-24T03:35:23;13.60;78.10
66190;DHT22;52992;52.084;5.412;2023-04-24T03:37:51;13.50;78.20
66190;DHT22;52992;52.084;5.412;2023-04-24T03:40:37;13.40;78.60
66190;DHT22;52992;52.084;5.412;2023-04-24T03:43:13;13.40;79.20
66190;DHT22;52992;52.084;5.412;2023-04-24T03:45:40;13.50;79.80
66190;DHT22;52992;52.084;5.412;2023-04-24T03:48:08;13.40;79.60
66190;DHT22;52992;52.084;5.412;2023-04-24T03:50:36;13.40;79.40
66190;DHT22;52992;52.084;5.412;2023-04-24T03:53:04;13.30;80.20
66190;DHT22;52992;52.084;5.412;2023-04-24T03:55:36;13.50;80.50
66190;DHT22;52992;52.084;5.412;2023-04-24T03:58:03;13.50;80.50
66190;DHT22;52992;52.084;5.412;2023-04-24T04:00:29;13.50;80.60
66190;DHT22;52992;52.084;5.412;2023-04-24T04:03:18;13.60;80.80
66190;DHT22;52992;52.084;5.412;2023-04-24T04:05:46;13.60;80.80
66190;DHT22;52992;52.084;5.412;2023-04-24T04:08:13;13.60;80.90
66190;DHT22;52992;52.084;5.412;2023-04-24T04:10:40;13.70;81.00
66190;DHT22;52992;52.084;5.412;2023-04-24T04:13:06;13.70;80.50
66190;DHT22;52992;52.084;5.412;2023-04-24T04:15:34;13.70;80.90
66190;DHT22;52992;52.084;5.412;2023-04-24T04:18:02;13.70;80.90
66190;DHT22;52992;52.084;5.412;2023-04-24T04:20:30;13.70;81.00
66190;DHT22;52992;52.084;5.412;2023-04-24T04:22:57;13.70;81.00
66190;DHT22;52992;52.084;5.412;2023-04-24T04:25:35;13.70;81.00
66190;DHT22;52992;52.084;5.412;2023-04-24T04:28:02;13.70;81.10
66190;DHT22;52992;52.084;5.412;2023-04-24T04:30:29;13.70;81.20
66190;DHT22;52992;52.084;5.412;2023-04-24T04:33:02;13.70;81.40
66190;DHT22;52992;52.084;5.412;2023-04-24T04:35:30;13.70;81.40
66190;DHT22;52992;52.084;5.412;2023-04-24T04:37:58;13.70;81.50
66190;DHT22;52992;52.084;5.412;2023-04-24T04:40:45;13.70;81.30
66190;DHT22;52992;52.084;5.412;2023-04-24T04:43:14;13.70;81.40
66190;DHT22;52992;52.084;5.412;2023-04-24T04:45:49;13.80;81.80
66190;DHT22;52992;52.084;5.412;2023-04-24T04:48:53;13.70;81.90
66190;DHT22;52992;52.084;5.412;2023-04-24T04:51:20;13.80;81.70
66190;DHT22;52992;52.084;5.412;2023-04-24T04:53:47;13.80;81.90
66190;DHT22;52992;52.084;5.412;2023-04-24T04:56:15;13.80;82.00
66190;DHT22;52992;52.084;5.412;2023-04-24T04:58:44;13.70;81.70
66190;DHT22;52992;52.084;5.412;2023-04-24T05:01:14;13.80;81.90
66190;DHT22;52992;52.084;5.412;2023-04-24T05:03:45;13.80;81.90
66190;DHT22;52992;52.084;5.412;2023-04-24T05:06:15;13.80;81.80
66190;DHT22;52992;52.084;5.412;2023-04-24T05:08:43;13.80;81.60
66190;DHT22;52992;52.084;5.412;2023-04-24T05:11:30;13.80;81.70
66190;DHT22;52992;52.084;5.412;2023-04-24T05:13:58;13.80;81.70
66190;DHT22;52992;52.084;5.412;2023-04-24T05:16:33;13.80;81.80
66190;DHT22;52992;52.084;5.412;2023-04-24T05:19:00;13.80;81.90
66190;DHT22;52992;52.084;5.412;2023-04-24T05:21:33;13.90;82.00
66190;DHT22;52992;52.084;5.412;2023-04-24T05:24:00;14.00;81.90
66190;DHT22;52992;52.084;5.412;2023-04-24T05:26:43;14.00;81.90
66190;DHT22;52992;52.084;5.412;2023-04-24T05:29:12;14.00;81.90
66190;DHT22;52992;52.084;5.412;2023-04-24T05:31:38;14.10;81.90
66190;DHT22;52992;52.084;5.412;2023-04-24T05:34:06;14.10;81.50
66190;DHT22;52992;52.084;5.412;2023-04-24T05:36:34;14.10;80.70
66190;DHT22;52992;52.084;5.412;2023-04-24T05:39:01;14.00;80.90
66190;DHT22;52992;52.084;5.412;2023-04-24T05:41:27;13.90;80.80
66190;DHT22;52992;52.084;5.412;2023-04-24T05:43:54;13.90;81.30
66190;DHT22;52992;52.084;5.412;2023-04-24T05:46:21;13.90;81.10
66190;DHT22;52992;52.084;5.412;2023-04-24T05:48:49;13.70;81.10
66190;DHT22;52992;52.084;5.412;2023-04-24T05:51:16;13.60;81.30
66190;DHT22;52992;52.084;5.412;2023-04-24T05:53:44;13.60;81.50
66190;DHT22;52992;52.084;5.412;2023-04-24T05:56:11;13.60;81.50
66190;DHT22;52992;52.084;5.412;2023-04-24T05:58:40;13.50;81.40
66190;DHT22;52992;52.084;5.412;2023-04-24T06:01:07;13.50;81.50
66190;DHT22;52992;52.084;5.412;2023-04-24T06:03:34;13.40;82.10
66190;DHT22;52992;52.084;5.412;2023-04-24T06:06:02;13.30;82.00
66190;DHT22;52992;52.084;5.412;2023-04-24T06:08:30;13.30;82.10
66190;DHT22;52992;52.084;5.412;2023-04-24T06:10:57;13.40;82.20
66190;DHT22;52992;52.084;5.412;2023-04-24T06:13:24;13.20;82.00
66190;DHT22;52992;52.084;5.412;2023-04-24T06:16:20;13.20;82.00
66190;DHT22;52992;52.084;5.412;2023-04-24T06:18:54;13.10;82.10
66190;DHT22;52992;52.084;5.412;2023-04-24T06:21:21;13.10;81.90
66190;DHT22;52992;52.084;5.412;2023-04-24T06:23:49;13.00;81.90
66190;DHT22;52992;52.084;5.412;2023-04-24T06:26:16;12.90;81.70
66190;DHT22;52992;52.084;5.412;2023-04-24T06:28:43;12.90;82.00
66190;DHT22;52992;52.084;5.412;2023-04-24T06:31:10;12.80;82.40
66190;DHT22;52992;52.084;5.412;2023-04-24T06:33:38;12.80;82.50
66190;DHT22;52992;52.084;5.412;2023-04-24T06:36:05;12.70;82.60
66190;DHT22;52992;52.084;5.412;2023-04-24T06:38:32;12.80;82.60
66190;DHT22;52992;52.084;5.412;2023-04-24T06:40:58;12.80;82.70
66190;DHT22;52992;52.084;5.412;2023-04-24T06:43:25;12.70;82.10
66190;DHT22;52992;52.084;5.412;2023-04-24T06:45:52;12.70;82.00
66190;DHT22;52992;52.084;5.412;2023-04-24T06:48:19;12.60;82.40
66190;DHT22;52992;52.084;5.412;2023-04-24T06:50:46;12.50;81.50
66190;DHT22;52992;52.084;5.412;2023-04-24T06:53:13;12.50;81.80
66190;DHT22;52992;52.084;5.412;2023-04-24T06:55:41;12.50;82.10
66190;DHT22;52992;52.084;5.412;2023-04-24T06:58:08;12.50;81.90
66190;DHT22;52992;52.084;5.412;2023-04-24T07:00:35;12.50;81.50
66190;DHT22;52992;52.084;5.412;2023-04-24T07:03:03;12.40;82.10
66190;DHT22;52992;52.084;5.412;2023-04-24T07:05:30;12.40;81.90
66190;DHT22;52992;52.084;5.412;2023-04-24T07:07:57;12.40;81.60
66190;DHT22;52992;52.084;5.412;2023-04-24T07:10:24;12.40;81.70
66190;DHT22;52992;52.084;5.412;2023-04-24T07:12:54;12.40;82.20
66190;DHT22;52992;52.084;5.412;2023-04-24T07:15:21;12.40;81.00
66190;DHT22;52992;52.084;5.412;2023-04-24T07:17:48;12.40;81.10
66190;DHT22;52992;52.084;5.412;2023-04-24T07:20:15;12.30;82.00
66190;DHT22;52992;52.084;5.412;2023-04-24T07:22:42;12.30;81.00
66190;DHT22;52992;52.084;5.412;2023-04-24T07:25:09;12.20;81.40
66190;DHT22;52992;52.084;5.412;2023-04-24T07:27:36;12.20;80.70
66190;DHT22;52992;52.084;5.412;2023-04-24T07:30:04;12.20;81.10
66190;DHT22;52992;52.084;5.412;2023-04-24T07:32:31;12.20;81.00
66190;DHT22;52992;52.084;5.412;2023-04-24T07:34:58;12.20;81.60
66190;DHT22;52992;52.084;5.412;2023-04-24T07:37:25;12.20;81.30
66190;DHT22;52992;52.084;5.412;2023-04-24T07:39:52;12.20;82.20
66190;DHT22;52992;52.084;5.412;2023-04-24T07:42:19;12.40;81.60
66190;DHT22;52992;52.084;5.412;2023-04-24T07:44:46;12.30;81.00
66190;DHT22;52992;52.084;5.412;2023-04-24T07:47:14;12.30;81.30
66190;DHT22;52992;52.084;5.412;2023-04-24T07:49:44;12.40;81.00
66190;DHT22;52992;52.084;5.412;2023-04-24T07:52:11;12.30;81.40
66190;DHT22;52992;52.084;5.412;2023-04-24T07:54:38;12.20;81.40
66190;DHT22;52992;52.084;5.412;2023-04-24T07:57:05;12.30;81.30
66190;DHT22;52992;52.084;5.412;2023-04-24T07:59:33;12.20;80.80
66190;DHT22;52992;52.084;5.412;2023-04-24T08:02:00;12.20;81.70
66190;DHT22;52992;52.084;5.412;2023-04-24T08:04:28;12.30;82.00
66190;DHT22;52992;52.084;5.412;2023-04-24T08:06:55;12.30;82.70
66190;DHT22;52992;52.084;5.412;2023-04-24T08:09:22;12.40;82.20
66190;DHT22;52992;52.084;5.412;2023-04-24T08:11:50;12.50;81.30
66190;DHT22;52992;52.084;5.412;2023-04-24T08:14:17;12.40;81.50
66190;DHT22;52992;52.084;5.412;2023-04-24T08:16:43;12.60;81.70
66190;DHT22;52992;52.084;5.412;2023-04-24T08:19:10;12.50;81.70
66190;DHT22;52992;52.084;5.412;2023-04-24T08:21:37;12.50;81.00
66190;DHT22;52992;52.084;5.412;2023-04-24T08:24:04;12.50;80.90
66190;DHT22;52992;52.084;5.412;2023-04-24T08:26:34;12.30;80.70
66190;DHT22;52992;52.084;5.412;2023-04-24T08:29:02;12.30;80.50
66190;DHT22;52992;52.084;5.412;2023-04-24T08:31:29;12.30;80.00
66190;DHT22;52992;52.084;5.412;2023-04-24T08:33:56;12.20;80.30
66190;DHT22;52992;52.084;5.412;2023-04-24T08:36:23;12.30;80.30
66190;DHT22;52992;52.084;5.412;2023-04-24T08:39:02;12.30;80.80
66190;DHT22;52992;52.084;5.412;2023-04-24T08:41:29;12.30;81.20
66190;DHT22;52992;52.084;5.412;2023-04-24T08:43:57;12.40;79.60
66190;DHT22;52992;52.084;5.412;2023-04-24T08:46:25;12.30;80.50
66190;DHT22;52992;52.084;5.412;2023-04-24T08:48:52;12.30;81.00
66190;DHT22;52992;52.084;5.412;2023-04-24T08:51:20;12.30;79.10
66190;DHT22;52992;52.084;5.412;2023-04-24T08:53:47;12.50;80.80
66190;DHT22;52992;52.084;5.412;2023-04-24T08:56:14;12.50;80.90
66190;DHT22;52992;52.084;5.412;2023-04-24T08:58:41;12.70;80.50
66190;DHT22;52992;52.084;5.412;2023-04-24T09:01:09;12.80;79.20
66190;DHT22;52992;52.084;5.412;2023-04-24T09:03:36;12.70;78.40
66190;DHT22;52992;52.084;5.412;2023-04-24T09:06:04;12.90;78.50
66190;DHT22;52992;52.084;5.412;2023-04-24T09:08:32;12.80;77.00
66190;DHT22;52992;52.084;5.412;2023-04-24T09:11:00;12.70;77.20
66190;DHT22;52992;52.084;5.412;2023-04-24T09:13:30;12.80;78.50
66190;DHT22;52992;52.084;5.412;2023-04-24T09:15:57;12.90;78.10
66190;DHT22;52992;52.084;5.412;2023-04-24T09:18:26;12.90;77.30
66190;DHT22;52992;52.084;5.412;2023-04-24T09:21:06;13.00;78.60
66190;DHT22;52992;52.084;5.412;2023-04-24T09:23:33;13.20;76.70
66190;DHT22;52992;52.084;5.412;2023-04-24T09:26:01;13.50;77.50
66190;DHT22;52992;52.084;5.412;2023-04-24T09:28:34;13.60;76.50
66190;DHT22;52992;52.084;5.412;2023-04-24T09:33:33;13.80;76.20
66190;DHT22;52992;52.084;5.412;2023-04-24T09:36:00;14.10;75.70
66190;DHT22;52992;52.084;5.412;2023-04-24T09:38:35;14.30;73.60
66190;DHT22;52992;52.084;5.412;2023-04-24T09:41:04;14.30;73.30
66190;DHT22;52992;52.084;5.412;2023-04-24T09:43:31;14.30;73.10
66190;DHT22;52992;52.084;5.412;2023-04-24T09:46:00;14.60;72.30
66190;DHT22;52992;52.084;5.412;2023-04-24T09:48:35;14.70;72.60
66190;DHT22;52992;52.084;5.412;2023-04-24T09:51:04;14.80;71.90
66190;DHT22;52992;52.084;5.412;2023-04-24T09:53:33;14.70;71.30
66190;DHT22;52992;52.084;5.412;2023-04-24T09:56:08;14.70;73.50
66190;DHT22;52992;52.084;5.412;2023-04-24T09:58:38;14.80;73.90
66190;DHT22;52992;52.084;5.412;2023-04-24T10:01:05;14.80;72.60
66190;DHT22;52992;52.084;5.412;2023-04-24T10:03:33;14.70;72.70
66190;DHT22;52992;52.084;5.412;2023-04-24T10:06:02;14.60;73.10
66190;DHT22;52992;52.084;5.412;2023-04-24T10:08:34;14.60;73.50
66190;DHT22;52992;52.084;5.412;2023-04-24T10:11:01;14.30;71.70
66190;DHT22;52992;52.084;5.412;2023-04-24T10:13:28;14.10;72.30
66190;DHT22;52992;52.084;5.412;2023-04-24T10:15:56;14.10;73.00
66190;DHT22;52992;52.084;5.412;2023-04-24T10:18:26;14.10;72.20
66190;DHT22;52992;52.084;5.412;2023-04-24T10:20:53;14.30;71.90
66190;DHT22;52992;52.084;5.412;2023-04-24T10:23:22;14.50;70.80
66190;DHT22;52992;52.084;5.412;2023-04-24T10:25:50;14.40;70.60
66190;DHT22;52992;52.084;5.412;2023-04-24T10:28:18;14.20;68.40
66190;DHT22;52992;52.084;5.412;2023-04-24T10:30:46;13.90;68.90
66190;DHT22;52992;52.084;5.412;2023-04-24T10:33:14;13.70;69.50
66190;DHT22;52992;52.084;5.412;2023-04-24T10:35:46;13.60;70.50
66190;DHT22;52992;52.084;5.412;2023-04-24T10:38:21;13.70;71.90
66190;DHT22;52992;52.084;5.412;2023-04-24T10:40:51;14.00;70.20
66190;DHT22;52992;52.084;5.412;2023-04-24T10:43:18;14.10;70.20
66190;DHT22;52992;52.084;5.412;2023-04-24T10:46:05;14.40;70.30
66190;DHT22;52992;52.084;5.412;2023-04-24T10:48:33;14.50;69.50
66190;DHT22;52992;52.084;5.412;2023-04-24T10:51:01;14.70;67.80
66190;DHT22;52992;52.084;5.412;2023-04-24T10:53:29;15.00;68.40
66190;DHT22;52992;52.084;5.412;2023-04-24T10:58:24;15.40;65.90
66190;DHT22;52992;52.084;5.412;2023-04-24T11:00:59;15.50;66.40
66190;DHT22;52992;52.084;5.412;2023-04-24T11:03:28;15.40;65.70
66190;DHT22;52992;52.084;5.412;2023-04-24T11:08:30;15.30;67.70
66190;DHT22;52992;52.084;5.412;2023-04-24T11:10:59;15.40;66.70
66190;DHT22;52992;52.084;5.412;2023-04-24T11:29:41;13.80;67.50
66190;DHT22;52992;52.084;5.412;2023-04-24T11:32:18;13.70;67.50
66190;DHT22;52992;52.084;5.412;2023-04-24T11:34:48;13.80;68.90
66190;DHT22;52992;52.084;5.412;2023-04-24T11:37:15;14.10;67.60
66190;DHT22;52992;52.084;5.412;2023-04-24T11:39:42;14.50;68.60
66190;DHT22;52992;52.084;5.412;2023-04-24T11:42:09;15.00;66.80
66190;DHT22;52992;52.084;5.412;2023-04-24T11:44:36;15.50;66.00
66190;DHT22;52992;52.084;5.412;2023-04-24T11:47:05;16.00;64.70
66190;DHT22;52992;52.084;5.412;2023-04-24T11:49:32;16.10;63.60
66190;DHT22;52992;52.084;5.412;2023-04-24T11:52:00;16.00;63.10
66190;DHT22;52992;52.084;5.412;2023-04-24T11:54:28;16.80;61.60
66190;DHT22;52992;52.084;5.412;2023-04-24T11:56:56;17.80;55.70
66190;DHT22;52992;52.084;5.412;2023-04-24T11:59:23;18.00;54.50
66190;DHT22;52992;52.084;5.412;2023-04-24T12:01:50;18.50;52.60
66190;DHT22;52992;52.084;5.412;2023-04-24T12:04:17;19.80;48.40
66190;DHT22;52992;52.084;5.412;2023-04-24T12:07:04;21.10;45.80
66190;DHT22;52992;52.084;5.412;2023-04-24T12:09:45;21.50;42.60
66190;DHT22;52992;52.084;5.412;2023-04-24T12:12:17;21.30;43.10
66190;DHT22;52992;52.084;5.412;2023-04-24T12:14:49;20.50;45.00
66190;DHT22;52992;52.084;5.412;2023-04-24T12:17:17;19.60;47.20
66190;DHT22;52992;52.084;5.412;2023-04-24T12:19:48;18.70;49.70
66190;DHT22;52992;52.084;5.412;2023-04-24T12:22:15;17.90;51.30
66190;DHT22;52992;52.084;5.412;2023-04-24T12:24:58;17.00;50.60
66190;DHT22;52992;52.084;5.412;2023-04-24T12:27:28;16.40;53.70
66190;DHT22;52992;52.084;5.412;2023-04-24T12:29:59;16.00;55.10
66190;DHT22;52992;52.084;5.412;2023-04-24T12:32:26;16.20;53.70
66190;DHT22;52992;52.084;5.412;2023-04-24T12:34:54;16.60;53.10
66190;DHT22;52992;52.084;5.412;2023-04-24T12:37:24;17.60;52.20
66190;DHT22;52992;52.084;5.412;2023-04-24T12:40:12;18.90;47.30
66190;DHT22;52992;52.084;5.412;2023-04-24T12:42:47;21.70;40.80
66190;DHT22;52992;52.084;5.412;2023-04-24T12:45:15;21.60;40.00
66190;DHT22;52992;52.084;5.412;2023-04-24T12:47:43;19.90;42.10
66190;DHT22;52992;52.084;5.412;2023-04-24T12:50:13;18.40;46.50
66190;DHT22;52992;52.084;5.412;2023-04-24T12:52:40;17.20;48.90
66190;DHT22;52992;52.084;5.412;2023-04-24T12:55:08;16.40;51.10
66190;DHT22;52992;52.084;5.412;2023-04-24T12:57:37;16.10;53.10
66190;DHT22;52992;52.084;5.412;2023-04-24T13:00:06;15.90;52.60
66190;DHT22;52992;52.084;5.412;2023-04-24T13:02:34;15.60;52.60
66190;DHT22;52992;52.084;5.412;2023-04-24T13:05:01;15.20;52.00
66190;DHT22;52992;52.084;5.412;2023-04-24T13:07:28;14.90;52.50
66190;DHT22;52992;52.084;5.412;2023-04-24T13:09:56;14.60;53.30
66190;DHT22;52992;52.084;5.412;2023-04-24T13:12:24;14.50;54.00
66190;DHT22;52992;52.084;5.412;2023-04-24T13:14:52;14.40;53.80
66190;DHT22;52992;52.084;5.412;2023-04-24T13:17:19;14.20;54.70
66190;DHT22;52992;52.084;5.412;2023-04-24T13:19:49;14.00;55.50
66190;DHT22;52992;52.084;5.412;2023-04-24T13:22:16;13.90;56.10
66190;DHT22;52992;52.084;5.412;2023-04-24T13:24:45;14.00;56.80
66190;DHT22;52992;52.084;5.412;2023-04-24T13:27:12;14.40;55.90
66190;DHT22;52992;52.084;5.412;2023-04-24T13:29:38;16.00;53.40
66190;DHT22;52992;52.084;5.412;2023-04-24T13:32:05;18.80;46.80
66190;DHT22;52992;52.084;5.412;2023-04-24T13:34:32;22.40;35.70
66190;DHT22;52992;52.084;5.412;2023-04-24T13:37:01;22.40;35.20
66190;DHT22;52992;52.084;5.412;2023-04-24T13:39:30;20.50;37.00
66190;DHT22;52992;52.084;5.412;2023-04-24T13:41:58;18.70;40.10
66190;DHT22;52992;52.084;5.412;2023-04-24T13:44:25;17.40;44.70
66190;DHT22;52992;52.084;5.412;2023-04-24T13:46:53;16.50;48.00
66190;DHT22;52992;52.084;5.412;2023-04-24T13:49:24;16.20;50.80
66190;DHT22;52992;52.084;5.412;2023-04-24T13:51:54;16.10;48.50
66190;DHT22;52992;52.084;5.412;2023-04-24T13:54:22;16.70;45.40
66190;DHT22;52992;52.084;5.412;2023-04-24T13:56:52;16.90;44.90
66190;DHT22;52992;52.084;5.412;2023-04-24T13:59:22;16.50;44.70
66190;DHT22;52992;52.084;5.412;2023-04-24T14:01:49;16.10;47.30
66190;DHT22;52992;52.084;5.412;2023-04-24T14:04:16;16.30;47.30
66190;DHT22;52992;52.084;5.412;2023-04-24T14:06:44;18.00;43.30
66190;DHT22;52992;52.084;5.412;2023-04-24T14:09:11;19.20;40.50
66190;DHT22;52992;52.084;5.412;2023-04-24T14:11:37;19.10;39.40
66190;DHT22;52992;52.084;5.412;2023-04-24T14:14:05;18.10;41.00
66190;DHT22;52992;52.084;5.412;2023-04-24T14:16:32;17.30;43.50
66190;DHT22;52992;52.084;5.412;2023-04-24T14:18:59;16.70;41.30
66190;DHT22;52992;52.084;5.412;2023-04-24T14:21:26;16.30;45.50
66190;DHT22;52992;52.084;5.412;2023-04-24T14:23:53;16.00;47.40
66190;DHT22;52992;52.084;5.412;2023-04-24T14:26:20;15.70;48.20
66190;DHT22;52992;52.084;5.412;2023-04-24T14:28:47;15.60;49.00
66190;DHT22;52992;52.084;5.412;2023-04-24T14:31:14;15.40;48.80
66190;DHT22;52992;52.084;5.412;2023-04-24T14:33:41;15.30;49.00
66190;DHT22;52992;52.084;5.412;2023-04-24T14:36:08;15.30;50.00
66190;DHT22;52992;52.084;5.412;2023-04-24T14:38:34;15.30;48.60
66190;DHT22;52992;52.084;5.412;2023-04-24T14:41:02;15.40;48.70
66190;DHT22;52992;52.084;5.412;2023-04-24T14:43:39;15.70;47.70
66190;DHT22;52992;52.084;5.412;2023-04-24T14:46:07;16.00;47.90
66190;DHT22;52992;52.084;5.412;2023-04-24T14:48:33;16.00;47.10
66190;DHT22;52992;52.084;5.412;2023-04-24T14:51:00;16.00;48.00
66190;DHT22;52992;52.084;5.412;2023-04-24T14:53:27;15.90;48.60
66190;DHT22;52992;52.084;5.412;2023-04-24T14:55:54;16.00;47.40
66190;DHT22;52992;52.084;5.412;2023-04-24T14:58:21;16.00;44.70
66190;DHT22;52992;52.084;5.412;2023-04-24T15:00:48;16.00;43.60
66190;DHT22;52992;52.084;5.412;2023-04-24T15:03:18;16.10;44.20
66190;DHT22;52992;52.084;5.412;2023-04-24T15:05:46;16.00;43.90
66190;DHT22;52992;52.084;5.412;2023-04-24T15:08:13;16.10;46.40
66190;DHT22;52992;52.084;5.412;2023-04-24T15:10:40;16.20;46.80
66190;DHT22;52992;52.084;5.412;2023-04-24T15:13:07;16.30;48.90
66190;DHT22;52992;52.084;5.412;2023-04-24T15:15:34;16.50;47.40
66190;DHT22;52992;52.084;5.412;2023-04-24T15:18:01;16.20;45.70
66190;DHT22;52992;52.084;5.412;2023-04-24T15:20:28;15.80;46.30
66190;DHT22;52992;52.084;5.412;2023-04-24T15:22:55;15.40;48.50
66190;DHT22;52992;52.084;5.412;2023-04-24T15:25:22;15.00;50.00
66190;DHT22;52992;52.084;5.412;2023-04-24T15:27:49;14.70;51.40
66190;DHT22;52992;52.084;5.412;2023-04-24T15:30:15;14.60;52.60
66190;DHT22;52992;52.084;5.412;2023-04-24T15:32:42;14.80;52.80
66190;DHT22;52992;52.084;5.412;2023-04-24T15:35:09;14.80;52.20
66190;DHT22;52992;52.084;5.412;2023-04-24T15:37:38;14.70;51.40
66190;DHT22;52992;52.084;5.412;2023-04-24T15:40:05;14.50;52.80
66190;DHT22;52992;52.084;5.412;2023-04-24T15:42:34;14.50;50.90
66190;DHT22;52992;52.084;5.412;2023-04-24T15:45:02;14.70;51.60
66190;DHT22;52992;52.084;5.412;2023-04-24T15:47:30;15.00;52.20
66190;DHT22;52992;52.084;5.412;2023-04-24T15:49:57;14.90;53.30
66190;DHT22;52992;52.084;5.412;2023-04-24T15:52:24;14.90;52.30
66190;DHT22;52992;52.084;5.412;2023-04-24T15:54:51;14.80;51.50
66190;DHT22;52992;52.084;5.412;2023-04-24T15:57:18;14.60;50.30
66190;DHT22;52992;52.084;5.412;2023-04-24T15:59:45;14.50;51.00
66190;DHT22;52992;52.084;5.412;2023-04-24T16:02:14;14.60;50.70